Аэропорт: Внуково. Москва

ICAO: UUWW

METAR:
2019-12-12 11:30:00
UUWW 121130Z 18002MPS 6000 OVC023 02/01 Q1022 R24/290050 NOSIG
METAR:
2019-12-12 07:59:00
TAF UUWW 120759Z 1209/1309 17003G08MPS 3000 BR OVC004 TX01/1212Z TNM01/1303Z TEMPO 1209/1215 -SN FEW003 BECMG 1215/1217 6000 NSW BKN007 TEMPO 1218/1309 -SN FEW003